createdAt,value
2023-08-19T00:00:24.397Z,25.6918335
2023-08-19T00:01:25.765Z,25.67169189
2023-08-19T00:02:27.416Z,25.67169189
2023-08-19T00:03:28.939Z,25.6918335
2023-08-19T00:04:30.459Z,25.7119751
2023-08-19T00:06:02.871Z,25.7220459
2023-08-19T00:07:04.195Z,25.7220459
2023-08-19T00:08:05.751Z,25.6918335
2023-08-19T00:09:07.028Z,25.67169189
2023-08-19T00:10:08.403Z,25.6918335
2023-08-19T00:11:09.932Z,25.66162109
2023-08-19T00:12:11.355Z,25.66162109
2023-08-19T00:13:12.824Z,25.61126709
2023-08-19T00:14:14.317Z,25.57098389
2023-08-19T00:15:15.907Z,25.56091309
2023-08-19T00:16:17.263Z,25.54077148
2023-08-19T00:17:18.676Z,25.53070068
2023-08-19T00:18:20.033Z,25.53070068
2023-08-19T00:19:21.419Z,25.49041748
2023-08-19T00:20:22.896Z,25.49041748
2023-08-19T00:21:24.412Z,25.49041748
2023-08-19T00:22:25.932Z,25.48034668
2023-08-19T00:23:27.485Z,25.45013428
2023-08-19T00:24:28.648Z,25.44006348
2023-08-19T00:25:30.149Z,25.38970947
2023-08-19T00:27:02.701Z,25.37963867
2023-08-19T00:28:04.069Z,25.34942627
2023-08-19T00:29:05.631Z,25.30914307
2023-08-19T00:30:07.316Z,25.28900146
2023-08-19T00:31:08.974Z,25.25878906
2023-08-19T00:32:10.367Z,25.23864746
2023-08-19T00:33:12.190Z,25.18829346
2023-08-19T00:34:13.754Z,25.18829346
2023-08-19T00:35:15.270Z,25.19836426
2023-08-19T00:36:16.928Z,25.19836426
2023-08-19T00:37:18.292Z,25.21850586
2023-08-19T00:38:19.807Z,25.19836426
2023-08-19T00:39:21.234Z,25.21850586
2023-08-19T00:40:22.807Z,25.19836426
2023-08-19T00:41:24.344Z,25.21850586
2023-08-19T00:42:25.787Z,25.22857666
2023-08-19T00:43:27.208Z,25.22857666
2023-08-19T00:44:28.743Z,25.23864746
2023-08-19T00:45:30.238Z,25.30914307
2023-08-19T00:47:02.584Z,25.29907227
2023-08-19T00:48:04.166Z,25.29907227
2023-08-19T00:49:05.836Z,25.28900146
2023-08-19T00:50:07.313Z,25.28900146
2023-08-19T00:51:08.826Z,25.29907227
2023-08-19T00:52:10.209Z,25.26885986
2023-08-19T00:53:11.545Z,25.30914307
2023-08-19T00:54:13.273Z,25.33935547
2023-08-19T00:55:14.820Z,25.30914307
2023-08-19T00:56:16.287Z,25.26885986
2023-08-19T00:57:17.698Z,25.23864746
2023-08-19T00:58:19.001Z,25.18829346
2023-08-19T00:59:20.349Z,25.19836426
2023-08-19T01:00:21.939Z,25.18829346
2023-08-19T01:01:23.588Z,25.15808105
2023-08-19T01:02:25.175Z,25.18829346
2023-08-19T01:03:26.784Z,25.19836426
2023-08-19T01:04:27.990Z,25.16815186
2023-08-19T01:05:29.515Z,25.08758545
2023-08-19T01:07:02.549Z,25.06744385
2023-08-19T01:08:04.193Z,25.04730225
2023-08-19T01:09:05.873Z,25.03723145
2023-08-19T01:10:07.357Z,25.03723145
2023-08-19T01:11:08.740Z,25.03723145
2023-08-19T01:12:10.316Z,25.06744385
2023-08-19T01:13:12.299Z,25.04730225
2023-08-19T01:14:13.802Z,25.03723145
2023-08-19T01:15:15.427Z,25.03723145
2023-08-19T01:16:16.946Z,25.03723145
2023-08-19T01:17:18.353Z,25.04730225
2023-08-19T01:18:19.924Z,25.04730225
2023-08-19T01:19:21.334Z,25.07751465
2023-08-19T01:20:22.918Z,25.07751465
2023-08-19T01:21:24.501Z,25.07751465
2023-08-19T01:22:26.001Z,25.04730225
2023-08-19T01:23:27.616Z,25.00701904
2023-08-19T01:24:29.119Z,24.88616943
2023-08-19T01:26:01.860Z,24.81567383
2023-08-19T01:27:03.413Z,24.79553223
2023-08-19T01:28:05.061Z,24.78546143
2023-08-19T01:29:06.661Z,24.74517822
2023-08-19T01:30:08.064Z,24.73510742
2023-08-19T01:31:09.572Z,24.68475342
2023-08-19T01:32:11.109Z,24.71496582
2023-08-19T01:33:12.700Z,24.71496582
2023-08-19T01:34:14.359Z,24.73510742
2023-08-19T01:35:15.910Z,24.76531982
2023-08-19T01:36:17.428Z,24.81567383
2023-08-19T01:37:18.972Z,24.82574463
2023-08-19T01:38:20.557Z,24.79553223
2023-08-19T01:39:22.127Z,24.76531982
2023-08-19T01:40:23.767Z,24.74517822
2023-08-19T01:41:25.344Z,24.71496582
2023-08-19T01:42:26.801Z,24.66461182
2023-08-19T01:43:28.349Z,24.68475342
2023-08-19T01:44:30.244Z,24.63439941
2023-08-19T01:46:02.652Z,24.66461182
2023-08-19T01:47:04.274Z,24.66461182
2023-08-19T01:48:05.746Z,24.64447021
2023-08-19T01:49:07.151Z,24.67468262
2023-08-19T01:50:08.679Z,24.68475342
2023-08-19T01:51:10.137Z,24.70489502
2023-08-19T01:52:11.629Z,24.66461182
2023-08-19T01:53:13.300Z,24.66461182
2023-08-19T01:54:14.848Z,24.64447021
2023-08-19T01:55:16.385Z,24.66461182
2023-08-19T01:56:17.883Z,24.64447021
2023-08-19T01:57:19.484Z,24.63439941
2023-08-19T01:58:20.992Z,24.60418701
2023-08-19T01:59:22.472Z,24.53369141
2023-08-19T02:00:24.081Z,24.52362061
2023-08-19T02:01:25.561Z,24.5135498
2023-08-19T02:02:27.063Z,24.5135498
2023-08-19T02:03:28.449Z,24.4934082
2023-08-19T02:04:30.224Z,24.52362061
2023-08-19T02:06:02.571Z,24.52362061
2023-08-19T02:07:04.089Z,24.52362061
2023-08-19T02:08:05.520Z,24.5135498
2023-08-19T02:09:06.878Z,24.55383301
2023-08-19T02:10:08.376Z,24.56390381
2023-08-19T02:11:09.848Z,24.59411621
2023-08-19T02:12:11.273Z,24.61425781
2023-08-19T02:13:12.886Z,24.63439941
2023-08-19T02:14:14.415Z,24.63439941
2023-08-19T02:15:15.807Z,24.63439941
2023-08-19T02:16:17.466Z,24.67468262
2023-08-19T02:17:18.930Z,24.66461182
2023-08-19T02:18:20.514Z,24.67468262
2023-08-19T02:19:22.113Z,24.67468262
2023-08-19T02:20:23.793Z,24.66461182
2023-08-19T02:21:25.503Z,24.64447021
2023-08-19T02:22:26.934Z,24.61425781
2023-08-19T02:23:28.604Z,24.53369141
2023-08-19T02:24:30.434Z,24.453125
2023-08-19T02:26:02.836Z,24.4229126
2023-08-19T02:27:04.473Z,24.4128418
2023-08-19T02:28:06.061Z,24.36248779
2023-08-19T02:29:07.576Z,24.33227539
2023-08-19T02:30:08.996Z,24.31213379
2023-08-19T02:31:10.742Z,24.31213379
2023-08-19T02:32:12.289Z,24.33227539
2023-08-19T02:33:13.763Z,24.33227539
2023-08-19T02:34:15.492Z,24.36248779
2023-08-19T02:35:16.833Z,24.34234619
2023-08-19T02:36:18.276Z,24.37255859
2023-08-19T02:37:19.773Z,24.3927002
2023-08-19T02:38:21.244Z,24.37255859
2023-08-19T02:39:22.820Z,24.34234619
2023-08-19T02:40:24.355Z,24.3927002
2023-08-19T02:41:25.952Z,24.4430542
2023-08-19T02:42:27.538Z,24.4631958
2023-08-19T02:43:28.895Z,24.4631958
2023-08-19T02:45:01.655Z,24.4833374
2023-08-19T02:46:03.252Z,24.453125
2023-08-19T02:47:04.869Z,24.4631958
2023-08-19T02:48:06.446Z,24.4631958
2023-08-19T02:49:07.929Z,24.453125
2023-08-19T02:50:09.513Z,24.4229126
2023-08-19T02:51:11.191Z,24.4430542
2023-08-19T02:52:12.785Z,24.453125
2023-08-19T02:53:14.569Z,24.4128418
2023-08-19T02:54:16.064Z,24.4128418
2023-08-19T02:55:17.558Z,24.36248779
2023-08-19T02:56:19.037Z,24.33227539
2023-08-19T02:57:20.709Z,24.30206299
2023-08-19T02:58:22.390Z,24.23156738
2023-08-19T02:59:24.143Z,24.18121338
2023-08-19T03:00:25.808Z,24.14093018
2023-08-19T03:01:27.332Z,24.11071777
2023-08-19T03:02:29.003Z,24.04022217
2023-08-19T03:04:00.902Z,24.08050537
2023-08-19T03:05:02.538Z,24.12078857
2023-08-19T03:06:04.230Z,24.18121338
2023-08-19T03:07:05.878Z,24.24163818
2023-08-19T03:08:07.472Z,24.29199219
2023-08-19T03:09:09.049Z,24.29199219
2023-08-19T03:10:10.562Z,24.26177979
2023-08-19T03:11:12.426Z,24.24163818
2023-08-19T03:12:14.135Z,24.19128418
2023-08-19T03:13:15.624Z,24.19128418
2023-08-19T03:14:17.348Z,24.16107178
2023-08-19T03:15:18.974Z,24.15100098
2023-08-19T03:16:20.447Z,24.11071777
2023-08-19T03:17:21.947Z,24.08050537
2023-08-19T03:18:23.550Z,24.05029297
2023-08-19T03:19:25.220Z,24.02008057
2023-08-19T03:20:26.529Z,24.05029297
2023-08-19T03:21:28.103Z,24.09057617
2023-08-19T03:22:30.297Z,24.06036377
2023-08-19T03:24:02.380Z,24.08050537
2023-08-19T03:25:03.698Z,24.05029297
2023-08-19T03:26:05.280Z,24.05029297
2023-08-19T03:27:06.865Z,24.08050537
2023-08-19T03:28:08.542Z,24.11071777
2023-08-19T03:29:10.094Z,24.16107178
2023-08-19T03:30:11.791Z,24.23156738
2023-08-19T03:31:13.510Z,24.23156738
2023-08-19T03:32:15.024Z,24.16107178
2023-08-19T03:33:16.734Z,24.15100098
2023-08-19T03:34:18.482Z,24.15100098
2023-08-19T03:35:19.778Z,24.14093018
2023-08-19T03:36:21.509Z,24.12078857
2023-08-19T03:37:23.189Z,24.12078857
2023-08-19T03:38:24.809Z,24.12078857
2023-08-19T03:39:26.364Z,24.14093018
2023-08-19T03:40:28.053Z,24.15100098
2023-08-19T03:41:29.964Z,24.05029297
2023-08-19T03:43:02.416Z,24.05029297
2023-08-19T03:44:03.911Z,24.05029297
2023-08-19T03:45:05.588Z,24.06036377
2023-08-19T03:46:07.210Z,24.08050537
2023-08-19T03:47:08.667Z,24.08050537
2023-08-19T03:48:10.188Z,24.08050537
2023-08-19T03:49:11.613Z,24.06036377
2023-08-19T03:50:13.461Z,24.08050537
2023-08-19T03:51:14.988Z,24.05029297
2023-08-19T03:52:16.550Z,23.99993896
2023-08-19T03:53:18.065Z,23.99993896
2023-08-19T03:54:19.317Z,24.02008057
2023-08-19T03:55:21.098Z,23.98986816
2023-08-19T03:56:22.701Z,23.95965576
2023-08-19T03:57:24.235Z,23.96972656
2023-08-19T03:58:25.847Z,23.98986816
2023-08-19T03:59:27.748Z,23.99993896
2023-08-19T04:00:29.678Z,23.96972656
2023-08-19T04:02:02.234Z,23.95965576
2023-08-19T04:03:04.045Z,23.91937256
2023-08-19T04:04:05.716Z,23.93951416
2023-08-19T04:05:08.930Z,23.93951416
2023-08-19T04:06:08.901Z,23.91937256
2023-08-19T04:07:10.566Z,23.92944336
2023-08-19T04:08:12.500Z,23.88916016
2023-08-19T04:09:14.099Z,23.86901855
2023-08-19T04:10:15.792Z,23.86901855
2023-08-19T04:11:17.493Z,23.85894775
2023-08-19T04:12:19.229Z,23.88916016
2023-08-19T04:13:20.761Z,23.92944336
2023-08-19T04:14:22.387Z,23.91937256
2023-08-19T04:15:23.878Z,23.88916016
2023-08-19T04:16:25.713Z,23.91937256
2023-08-19T04:17:27.110Z,23.91937256
2023-08-19T04:18:28.506Z,23.92944336
2023-08-19T04:20:00.967Z,23.93951416
2023-08-19T04:21:02.624Z,23.92944336
2023-08-19T04:22:04.342Z,23.91937256
2023-08-19T04:23:05.738Z,23.89923096
2023-08-19T04:24:07.294Z,23.91937256
2023-08-19T04:25:08.585Z,23.91937256
2023-08-19T04:26:10.153Z,23.88916016
2023-08-19T04:27:12.026Z,23.81866455
2023-08-19T04:28:13.644Z,23.81866455
2023-08-19T04:29:15.106Z,23.80859375
2023-08-19T04:30:16.665Z,23.77838135
2023-08-19T04:31:18.228Z,23.70788574
2023-08-19T04:32:19.729Z,23.67767334
2023-08-19T04:33:21.192Z,23.70788574
2023-08-19T04:34:22.959Z,23.73809814
2023-08-19T04:35:24.602Z,23.76831055
2023-08-19T04:36:26.309Z,23.76831055
2023-08-19T04:37:28.015Z,23.73809814
2023-08-19T04:39:00.690Z,23.71795654
2023-08-19T04:40:02.304Z,23.70788574
2023-08-19T04:41:04.080Z,23.70788574
2023-08-19T04:42:05.671Z,23.68774414
2023-08-19T04:43:07.215Z,23.66760254
2023-08-19T04:44:08.793Z,23.66760254
2023-08-19T04:45:10.449Z,23.66760254
2023-08-19T04:46:12.309Z,23.63739014
2023-08-19T04:47:13.949Z,23.62731934
2023-08-19T04:48:15.553Z,23.61724854
2023-08-19T04:49:17.009Z,23.61724854
2023-08-19T04:50:18.646Z,23.61724854
2023-08-19T04:51:20.241Z,23.59710693
2023-08-19T04:52:21.788Z,23.61724854
2023-08-19T04:53:23.442Z,23.67767334
2023-08-19T04:54:25.132Z,23.70788574
2023-08-19T04:55:26.893Z,23.77838135
2023-08-19T04:56:28.470Z,23.78845215
2023-08-19T04:58:00.853Z,23.74816895
2023-08-19T04:59:02.510Z,23.73809814
2023-08-19T05:00:04.290Z,23.76831055
2023-08-19T05:01:05.866Z,23.77838135
2023-08-19T05:02:07.384Z,23.81866455
2023-08-19T05:03:09.046Z,23.83880615
2023-08-19T05:04:10.566Z,23.88916016
2023-08-19T05:05:12.662Z,23.86901855
2023-08-19T05:06:14.224Z,23.89923096
2023-08-19T05:07:15.826Z,23.86901855
2023-08-19T05:08:17.339Z,23.81866455
2023-08-19T05:09:18.666Z,23.77838135
2023-08-19T05:10:20.315Z,23.73809814
2023-08-19T05:11:21.850Z,23.70788574
2023-08-19T05:12:23.007Z,23.76831055
2023-08-19T05:13:24.527Z,23.77838135
2023-08-19T05:14:26.281Z,23.81866455
2023-08-19T05:15:27.737Z,23.83880615
2023-08-19T05:17:00.293Z,23.80859375
2023-08-19T05:18:01.491Z,23.76831055
2023-08-19T05:19:02.752Z,23.78845215
2023-08-19T05:20:03.917Z,23.76831055
2023-08-19T05:21:05.381Z,23.77838135
2023-08-19T05:22:06.617Z,23.81866455
2023-08-19T05:23:07.761Z,23.83880615
2023-08-19T05:24:09.381Z,23.83880615
2023-08-19T05:25:10.889Z,23.80859375
2023-08-19T05:26:12.451Z,23.78845215
2023-08-19T05:27:13.936Z,23.66760254
2023-08-19T05:28:15.556Z,23.59710693
2023-08-19T05:29:17.232Z,23.55682373
2023-08-19T05:30:18.708Z,23.53668213
2023-08-19T05:31:19.855Z,23.52661133
2023-08-19T05:32:21.377Z,23.52661133
2023-08-19T05:33:22.783Z,23.46618652
2023-08-19T05:34:24.323Z,23.37554932
2023-08-19T05:35:25.780Z,23.38562012
2023-08-19T05:36:27.428Z,23.38562012
2023-08-19T05:38:00.134Z,23.41583252
2023-08-19T05:39:01.832Z,23.44604492
2023-08-19T05:40:03.362Z,23.51654053
2023-08-19T05:41:04.789Z,23.55682373
2023-08-19T05:42:06.548Z,23.58703613
2023-08-19T05:43:08.069Z,23.66760254
2023-08-19T05:44:09.224Z,23.71795654
2023-08-19T05:45:10.564Z,23.77838135
2023-08-19T05:46:12.451Z,23.83880615
2023-08-19T05:47:13.925Z,23.89923096
2023-08-19T05:48:15.407Z,23.95965576
2023-08-19T05:49:17.012Z,23.99993896
2023-08-19T05:50:18.512Z,24.04022217
2023-08-19T05:51:20.062Z,24.05029297
2023-08-19T05:52:21.782Z,24.06036377
2023-08-19T05:53:23.144Z,24.09057617
2023-08-19T05:54:24.631Z,24.14093018
2023-08-19T05:55:26.153Z,24.15100098
2023-08-19T05:56:27.824Z,24.19128418
2023-08-19T05:57:59.916Z,24.21142578
2023-08-19T05:59:01.222Z,24.23156738
2023-08-19T06:00:02.945Z,24.18121338
2023-08-19T06:01:04.558Z,24.12078857
2023-08-19T06:02:05.854Z,24.12078857
2023-08-19T06:03:07.603Z,24.12078857
2023-08-19T06:04:09.092Z,24.18121338
2023-08-19T06:05:10.395Z,24.19128418
2023-08-19T06:06:12.122Z,24.19128418
2023-08-19T06:07:13.395Z,24.24163818
2023-08-19T06:08:15.071Z,24.26177979
2023-08-19T06:09:16.732Z,24.27185059
2023-08-19T06:10:18.028Z,24.27185059
2023-08-19T06:11:19.778Z,24.30206299
2023-08-19T06:12:21.258Z,24.30206299
2023-08-19T06:13:22.746Z,24.33227539
2023-08-19T06:14:24.227Z,24.33227539
2023-08-19T06:15:25.891Z,24.34234619
2023-08-19T06:16:27.304Z,24.4128418
2023-08-19T06:17:59.579Z,24.4430542
2023-08-19T06:19:01.078Z,24.453125
2023-08-19T06:20:02.506Z,24.453125
2023-08-19T06:21:04.102Z,24.4631958
2023-08-19T06:22:05.567Z,24.4934082
2023-08-19T06:23:07.004Z,24.4934082
2023-08-19T06:24:08.546Z,24.55383301
2023-08-19T06:25:09.920Z,24.59411621
2023-08-19T06:26:11.816Z,24.61425781
2023-08-19T06:27:13.233Z,24.61425781
2023-08-19T06:28:14.687Z,24.63439941
2023-08-19T06:29:16.312Z,24.68475342
2023-08-19T06:30:17.897Z,24.70489502
2023-08-19T06:31:21.503Z,24.73510742
2023-08-19T06:32:20.908Z,24.73510742
2023-08-19T06:33:22.553Z,24.73510742
2023-08-19T06:34:24.150Z,24.76531982
2023-08-19T06:35:25.622Z,24.76531982
2023-08-19T06:36:26.989Z,24.81567383
2023-08-19T06:37:59.419Z,24.83581543
2023-08-19T06:39:00.897Z,24.86602783
2023-08-19T06:40:02.122Z,24.89624023
2023-08-19T06:41:03.584Z,24.93652344
2023-08-19T06:42:04.749Z,24.96673584
2023-08-19T06:43:05.976Z,24.98687744
2023-08-19T06:44:07.473Z,25.01708984
2023-08-19T06:45:09.029Z,25.01708984
2023-08-19T06:46:10.603Z,25.04730225
2023-08-19T06:47:12.563Z,25.04730225
2023-08-19T06:48:14.017Z,25.06744385
2023-08-19T06:49:15.490Z,25.03723145
2023-08-19T06:50:16.917Z,25.04730225
2023-08-19T06:51:18.413Z,25.06744385
2023-08-19T06:52:19.862Z,25.04730225
2023-08-19T06:53:21.298Z,25.06744385
2023-08-19T06:54:22.619Z,25.08758545
2023-08-19T06:55:24.162Z,25.10772705
2023-08-19T06:56:25.637Z,25.13793945
2023-08-19T06:57:27.545Z,25.16815186
2023-08-19T06:58:59.796Z,25.18829346
2023-08-19T07:00:01.265Z,25.21850586
2023-08-19T07:01:02.814Z,25.21850586
2023-08-19T07:02:04.537Z,25.22857666
2023-08-19T07:03:06.188Z,25.22857666
2023-08-19T07:04:07.527Z,25.25878906
2023-08-19T07:05:08.993Z,25.26885986
2023-08-19T07:06:10.556Z,25.30914307
2023-08-19T07:07:12.440Z,25.30914307
2023-08-19T07:08:13.780Z,25.33935547
2023-08-19T07:09:15.401Z,25.33935547
2023-08-19T07:10:16.878Z,25.35949707
2023-08-19T07:11:18.270Z,25.33935547
2023-08-19T07:12:19.904Z,25.33935547
2023-08-19T07:13:21.447Z,25.30914307
2023-08-19T07:14:22.900Z,25.33935547
2023-08-19T07:15:24.393Z,25.34942627
2023-08-19T07:16:25.781Z,25.34942627
2023-08-19T07:17:27.662Z,25.35949707
2023-08-19T07:18:59.937Z,25.38970947
2023-08-19T07:20:01.425Z,25.38970947
2023-08-19T07:21:02.825Z,25.44006348
2023-08-19T07:22:04.329Z,25.46020508
2023-08-19T07:23:05.622Z,25.48034668
2023-08-19T07:24:07.287Z,25.51055908
2023-08-19T07:25:08.877Z,25.54077148
2023-08-19T07:26:10.416Z,25.56091309
2023-08-19T07:27:12.210Z,25.57098389
2023-08-19T07:28:13.621Z,25.59112549
2023-08-19T07:29:15.191Z,25.61126709
2023-08-19T07:30:16.813Z,25.61126709
2023-08-19T07:31:18.345Z,25.66162109
2023-08-19T07:32:19.837Z,25.67169189
2023-08-19T07:33:21.203Z,25.7119751
2023-08-19T07:34:22.737Z,25.7220459
2023-08-19T07:35:24.199Z,25.7421875
2023-08-19T07:36:25.635Z,25.7522583
2023-08-19T07:37:27.597Z,25.81268311
2023-08-19T07:38:59.925Z,25.85296631
2023-08-19T07:40:01.161Z,25.85296631
2023-08-19T07:41:02.580Z,25.89324951
2023-08-19T07:42:04.049Z,25.91339111
2023-08-19T07:43:05.794Z,25.96374512
2023-08-19T07:44:07.072Z,25.96374512
2023-08-19T07:45:08.586Z,26.01409912
2023-08-19T07:46:10.152Z,26.01409912
2023-08-19T07:47:11.658Z,26.03424072
2023-08-19T07:48:13.038Z,26.04431152
2023-08-19T07:49:14.386Z,26.08459473
2023-08-19T07:50:15.911Z,26.08459473
2023-08-19T07:51:17.489Z,26.11480713
2023-08-19T07:52:19.054Z,26.12487793
2023-08-19T07:53:20.568Z,26.15509033
2023-08-19T07:54:21.715Z,26.15509033
2023-08-19T07:55:22.850Z,26.16516113
2023-08-19T07:56:24.050Z,26.18530273
2023-08-19T07:57:25.632Z,26.19537354
2023-08-19T07:58:27.546Z,26.26586914
2023-08-19T07:59:59.861Z,26.27593994
2023-08-19T08:01:01.419Z,26.31622314
2023-08-19T08:02:02.862Z,26.33636475
2023-08-19T08:03:04.371Z,26.34643555
2023-08-19T08:04:05.907Z,26.37664795
2023-08-19T08:05:07.468Z,26.38671875
2023-08-19T08:06:08.626Z,26.40686035
2023-08-19T08:07:10.024Z,26.45721436
2023-08-19T08:08:11.479Z,26.46728516
2023-08-19T08:09:13.044Z,26.48742676
2023-08-19T08:10:14.585Z,26.50756836
2023-08-19T08:11:15.976Z,26.52770996
2023-08-19T08:12:17.307Z,26.53778076
2023-08-19T08:13:18.667Z,26.56799316
2023-08-19T08:14:20.152Z,26.58813477
2023-08-19T08:15:21.710Z,26.59820557
2023-08-19T08:16:23.191Z,26.58813477
2023-08-19T08:17:24.553Z,26.60827637
2023-08-19T08:18:26.167Z,26.60827637
2023-08-19T08:19:58.649Z,26.64855957
2023-08-19T08:21:00.061Z,26.64855957
2023-08-19T08:22:01.534Z,26.67877197
2023-08-19T08:23:02.947Z,26.68884277
2023-08-19T08:24:04.271Z,26.71905518
2023-08-19T08:25:05.850Z,26.74926758
2023-08-19T08:26:07.206Z,26.77947998
2023-08-19T08:27:08.673Z,26.78955078
2023-08-19T08:28:09.995Z,26.82983398
2023-08-19T08:29:11.449Z,26.86004639
2023-08-19T08:30:12.808Z,26.86004639
2023-08-19T08:31:14.511Z,26.88018799
2023-08-19T08:32:16.046Z,26.91040039
2023-08-19T08:33:17.335Z,26.94061279
2023-08-19T08:34:18.929Z,26.9708252
2023-08-19T08:35:20.540Z,27.0111084
2023-08-19T08:36:21.858Z,27.0111084
2023-08-19T08:37:23.367Z,27.03125
2023-08-19T08:38:24.864Z,27.0614624
2023-08-19T08:39:26.333Z,27.11181641
2023-08-19T08:40:58.743Z,27.13195801
2023-08-19T08:42:00.102Z,27.15209961
2023-08-19T08:43:01.516Z,27.15209961
2023-08-19T08:44:02.905Z,27.16217041
2023-08-19T08:45:04.374Z,27.18231201
2023-08-19T08:46:05.866Z,27.20245361
2023-08-19T08:47:07.285Z,27.23266602
2023-08-19T08:48:08.877Z,27.24273682
2023-08-19T08:49:10.193Z,27.25280762
2023-08-19T08:50:11.574Z,27.27294922
2023-08-19T08:51:13.038Z,27.28302002
2023-08-19T08:52:14.516Z,27.31323242
2023-08-19T08:53:16.083Z,27.33337402
2023-08-19T08:54:17.467Z,27.35351563
2023-08-19T08:55:18.845Z,27.39379883
2023-08-19T08:56:20.239Z,27.42401123
2023-08-19T08:57:21.592Z,27.45422363
2023-08-19T08:58:23.035Z,27.46429443
2023-08-19T08:59:24.609Z,27.46429443
2023-08-19T09:00:26.054Z,27.49450684
2023-08-19T09:01:58.255Z,27.52471924
2023-08-19T09:02:59.629Z,27.52471924
2023-08-19T09:04:01.611Z,27.55493164
2023-08-19T09:05:03.260Z,27.57507324
2023-08-19T09:06:04.584Z,27.58514404
2023-08-19T09:07:06.086Z,27.62542725
2023-08-19T09:08:07.536Z,27.62542725
2023-08-19T09:09:08.842Z,27.67578125
2023-08-19T09:10:10.227Z,27.68585205
2023-08-19T09:11:11.715Z,27.71606445
2023-08-19T09:12:13.009Z,27.73620605
2023-08-19T09:13:14.529Z,27.75634766
2023-08-19T09:14:16.066Z,27.77648926
2023-08-19T09:15:17.523Z,27.80670166
2023-08-19T09:16:18.983Z,27.82684326
2023-08-19T09:17:20.308Z,27.85705566
2023-08-19T09:18:21.719Z,27.86712646
2023-08-19T09:19:23.239Z,27.89733887
2023-08-19T09:20:24.714Z,27.92755127
2023-08-19T09:21:26.619Z,27.95776367
2023-08-19T09:22:58.847Z,27.97790527
2023-08-19T09:24:00.284Z,27.98797607
2023-08-19T09:25:01.623Z,28.00811768
2023-08-19T09:26:02.974Z,27.98797607
2023-08-19T09:27:04.377Z,28.00811768
2023-08-19T09:28:05.876Z,28.02825928
2023-08-19T09:29:07.174Z,28.02825928
2023-08-19T09:30:08.667Z,28.04840088
2023-08-19T09:31:10.055Z,28.04840088
2023-08-19T09:32:11.410Z,28.04840088
2023-08-19T09:33:13.058Z,28.04840088
2023-08-19T09:34:14.488Z,28.07861328
2023-08-19T09:35:15.758Z,28.07861328
2023-08-19T09:36:17.201Z,28.08868408
2023-08-19T09:37:18.572Z,28.12896729
2023-08-19T09:38:20.116Z,28.13903809
2023-08-19T09:39:21.795Z,28.10882568
2023-08-19T09:40:22.913Z,28.12896729
2023-08-19T09:41:24.372Z,28.13903809
2023-08-19T09:42:25.772Z,28.14910889
2023-08-19T09:43:57.942Z,28.17932129
2023-08-19T09:44:59.506Z,28.17932129
2023-08-19T09:46:01.032Z,28.19946289
2023-08-19T09:47:02.584Z,28.20953369
2023-08-19T09:48:03.945Z,28.22967529
2023-08-19T09:49:05.267Z,28.24981689
2023-08-19T09:50:06.672Z,28.2699585
2023-08-19T09:51:08.141Z,28.3001709
2023-08-19T09:52:09.600Z,28.3001709
2023-08-19T09:53:10.886Z,28.3001709
2023-08-19T09:54:12.579Z,28.3001709
2023-08-19T09:55:13.961Z,28.3001709
2023-08-19T09:56:15.395Z,28.3001709
2023-08-19T09:57:16.855Z,28.3203125
2023-08-19T09:58:18.405Z,28.3203125
2023-08-19T09:59:19.907Z,28.3303833
2023-08-19T10:00:21.318Z,28.3505249
2023-08-19T10:01:22.720Z,28.3303833
2023-08-19T10:02:24.239Z,28.3303833
2023-08-19T10:03:26.429Z,28.3303833
2023-08-19T10:04:58.551Z,28.3001709
2023-08-19T10:06:00.057Z,28.3303833
2023-08-19T10:07:01.555Z,28.3505249
2023-08-19T10:08:02.922Z,28.3505249
2023-08-19T10:09:04.347Z,28.3303833
2023-08-19T10:10:05.940Z,28.3303833
2023-08-19T10:11:07.245Z,28.3203125
2023-08-19T10:12:09.150Z,28.3203125
2023-08-19T10:13:10.797Z,28.3505249
2023-08-19T10:14:12.835Z,28.3505249
2023-08-19T10:15:14.994Z,28.3605957
2023-08-19T10:16:16.453Z,28.39080811
2023-08-19T10:17:18.059Z,28.39080811
2023-08-19T10:18:19.662Z,28.40087891
2023-08-19T10:19:20.864Z,28.42102051
2023-08-19T10:20:22.086Z,28.43109131
2023-08-19T10:21:23.914Z,28.43109131
2023-08-19T10:22:25.898Z,28.45123291
2023-08-19T10:23:58.597Z,28.46130371
2023-08-19T10:25:00.562Z,28.48144531
2023-08-19T10:26:01.899Z,28.46130371
2023-08-19T10:27:03.685Z,28.48144531
2023-08-19T10:28:04.679Z,28.48144531
2023-08-19T10:29:05.914Z,28.50158691
2023-08-19T10:30:07.673Z,28.51165771
2023-08-19T10:31:09.541Z,28.51165771
2023-08-19T10:32:10.717Z,28.51165771
2023-08-19T10:33:12.762Z,28.52172852
2023-08-19T10:34:13.785Z,28.52172852
2023-08-19T10:35:15.079Z,28.54187012
2023-08-19T10:36:16.542Z,28.52172852
2023-08-19T10:37:17.941Z,28.54187012
2023-08-19T10:38:19.436Z,28.52172852
2023-08-19T10:39:21.112Z,28.52172852
2023-08-19T10:40:22.559Z,28.55194092
2023-08-19T10:41:23.978Z,28.55194092
2023-08-19T10:42:25.866Z,28.58215332
2023-08-19T10:43:58.214Z,28.61236572
2023-08-19T10:44:59.576Z,28.62243652
2023-08-19T10:46:01.236Z,28.65264893
2023-08-19T10:47:02.639Z,28.67279053
2023-08-19T10:48:04.346Z,28.69293213
2023-08-19T10:49:05.937Z,28.67279053
2023-08-19T10:50:07.644Z,28.72314453
2023-08-19T10:51:09.439Z,28.72314453
2023-08-19T10:52:10.919Z,28.72314453
2023-08-19T10:53:12.502Z,28.72314453
2023-08-19T10:54:13.980Z,28.73321533
2023-08-19T10:55:15.313Z,28.73321533
2023-08-19T10:56:16.913Z,28.74328613
2023-08-19T10:57:18.118Z,28.74328613
2023-08-19T10:58:19.588Z,28.76342773
2023-08-19T10:59:20.905Z,28.79364014
2023-08-19T11:00:22.321Z,28.79364014
2023-08-19T11:01:23.640Z,28.79364014
2023-08-19T11:02:25.021Z,28.83392334
2023-08-19T11:03:57.636Z,28.83392334
2023-08-19T11:04:59.093Z,28.87420654
2023-08-19T11:06:00.381Z,28.87420654
2023-08-19T11:07:01.780Z,28.88427734
2023-08-19T11:08:03.127Z,28.91448975
2023-08-19T11:09:04.559Z,28.92456055
2023-08-19T11:10:06.197Z,28.95477295
2023-08-19T11:11:07.684Z,28.95477295
2023-08-19T11:12:09.840Z,28.94470215
2023-08-19T11:13:12.129Z,28.95477295
2023-08-19T11:14:13.364Z,28.97491455
2023-08-19T11:15:14.917Z,28.99505615
2023-08-19T11:16:16.157Z,29.01519775
2023-08-19T11:17:17.607Z,29.06555176
2023-08-19T11:18:19.211Z,29.09576416
2023-08-19T11:19:20.691Z,29.11590576
2023-08-19T11:20:22.104Z,29.17633057
2023-08-19T11:21:23.694Z,29.22668457
2023-08-19T11:22:25.443Z,29.22668457
2023-08-19T11:23:57.843Z,29.22668457